sensor_id;sensor_type;location;lat;lon;timestamp;P1;durP1;ratioP1;P2;durP2;ratioP2
22877;SDS011;11606;45.404;12.148;2022-08-01T00:00:37;3.50;;;2.53;;
22877;SDS011;11606;45.404;12.148;2022-08-01T00:03:03;3.37;;;2.53;;
22877;SDS011;11606;45.404;12.148;2022-08-01T00:05:29;2.90;;;2.40;;
22877;SDS011;11606;45.404;12.148;2022-08-01T00:07:55;3.27;;;2.20;;
22877;SDS011;11606;45.404;12.148;2022-08-01T00:10:21;3.53;;;2.30;;
22877;SDS011;11606;45.404;12.148;2022-08-01T00:12:47;3.40;;;2.70;;
22877;SDS011;11606;45.404;12.148;2022-08-01T00:15:14;2.50;;;2.13;;
22877;SDS011;11606;45.404;12.148;2022-08-01T00:17:41;2.80;;;2.60;;
22877;SDS011;11606;45.404;12.148;2022-08-01T00:20:08;2.90;;;2.70;;
22877;SDS011;11606;45.404;12.148;2022-08-01T00:22:35;3.07;;;2.87;;
22877;SDS011;11606;45.404;12.148;2022-08-01T00:25:01;2.87;;;2.67;;
22877;SDS011;11606;45.404;12.148;2022-08-01T00:27:27;2.77;;;2.57;;
22877;SDS011;11606;45.404;12.148;2022-08-01T00:29:53;2.30;;;2.10;;
22877;SDS011;11606;45.404;12.148;2022-08-01T00:32:19;2.77;;;2.57;;
22877;SDS011;11606;45.404;12.148;2022-08-01T00:34:45;3.10;;;2.80;;
22877;SDS011;11606;45.404;12.148;2022-08-01T00:37:11;2.60;;;2.40;;
22877;SDS011;11606;45.404;12.148;2022-08-01T00:39:36;2.87;;;2.67;;
22877;SDS011;11606;45.404;12.148;2022-08-01T00:42:06;3.30;;;2.60;;
22877;SDS011;11606;45.404;12.148;2022-08-01T00:44:34;3.73;;;3.43;;
22877;SDS011;11606;45.404;12.148;2022-08-01T00:47:00;3.37;;;3.07;;
22877;SDS011;11606;45.404;12.148;2022-08-01T00:49:27;4.57;;;3.27;;
22877;SDS011;11606;45.404;12.148;2022-08-01T00:51:54;3.47;;;3.17;;
22877;SDS011;11606;45.404;12.148;2022-08-01T00:54:20;3.00;;;2.80;;
22877;SDS011;11606;45.404;12.148;2022-08-01T00:56:47;5.40;;;3.90;;
22877;SDS011;11606;45.404;12.148;2022-08-01T00:59:13;3.33;;;3.03;;
22877;SDS011;11606;45.404;12.148;2022-08-01T01:01:41;4.73;;;4.33;;
22877;SDS011;11606;45.404;12.148;2022-08-01T01:04:08;4.40;;;3.80;;
22877;SDS011;11606;45.404;12.148;2022-08-01T01:06:41;4.00;;;3.53;;
22877;SDS011;11606;45.404;12.148;2022-08-01T01:15:14;3.10;;;2.90;;
22877;SDS011;11606;45.404;12.148;2022-08-01T01:18:12;3.57;;;3.27;;
22877;SDS011;11606;45.404;12.148;2022-08-01T01:20:24;3.70;;;3.10;;
22877;SDS011;11606;45.404;12.148;2022-08-01T01:28:53;4.67;;;3.83;;
22877;SDS011;11606;45.404;12.148;2022-08-01T01:31:22;3.93;;;3.53;;
22877;SDS011;11606;45.404;12.148;2022-08-01T01:33:51;4.53;;;3.07;;
22877;SDS011;11606;45.404;12.148;2022-08-01T01:36:19;4.10;;;3.70;;
22877;SDS011;11606;45.404;12.148;2022-08-01T01:38:46;6.97;;;3.63;;
22877;SDS011;11606;45.404;12.148;2022-08-01T01:41:14;5.40;;;4.00;;
22877;SDS011;11606;45.404;12.148;2022-08-01T01:43:42;3.63;;;3.33;;
22877;SDS011;11606;45.404;12.148;2022-08-01T01:46:10;4.73;;;3.70;;
22877;SDS011;11606;45.404;12.148;2022-08-01T01:48:38;4.63;;;4.13;;
22877;SDS011;11606;45.404;12.148;2022-08-01T01:51:05;4.80;;;4.23;;
22877;SDS011;11606;45.404;12.148;2022-08-01T01:53:32;4.60;;;4.17;;
22877;SDS011;11606;45.404;12.148;2022-08-01T01:56:00;6.27;;;3.80;;
22877;SDS011;11606;45.404;12.148;2022-08-01T01:58:27;6.30;;;4.97;;
22877;SDS011;11606;45.404;12.148;2022-08-01T02:00:55;6.90;;;6.30;;
22877;SDS011;11606;45.404;12.148;2022-08-01T02:03:23;7.03;;;6.43;;
22877;SDS011;11606;45.404;12.148;2022-08-01T02:05:51;5.67;;;5.17;;
22877;SDS011;11606;45.404;12.148;2022-08-01T02:08:19;7.93;;;6.30;;
22877;SDS011;11606;45.404;12.148;2022-08-01T02:10:46;7.50;;;6.80;;
22877;SDS011;11606;45.404;12.148;2022-08-01T02:13:34;7.87;;;7.13;;
22877;SDS011;11606;45.404;12.148;2022-08-01T02:16:03;10.53;;;8.20;;
22877;SDS011;11606;45.404;12.148;2022-08-01T02:18:29;8.40;;;7.50;;
22877;SDS011;11606;45.404;12.148;2022-08-01T02:20:56;9.40;;;8.60;;
22877;SDS011;11606;45.404;12.148;2022-08-01T02:23:24;8.10;;;7.50;;
22877;SDS011;11606;45.404;12.148;2022-08-01T02:25:57;7.63;;;6.97;;
22877;SDS011;11606;45.404;12.148;2022-08-01T02:28:28;7.10;;;6.50;;
22877;SDS011;11606;45.404;12.148;2022-08-01T02:30:59;7.67;;;6.73;;
22877;SDS011;11606;45.404;12.148;2022-08-01T02:33:29;7.03;;;6.53;;
22877;SDS011;11606;45.404;12.148;2022-08-01T02:36:02;7.80;;;7.20;;
22877;SDS011;11606;45.404;12.148;2022-08-01T02:38:29;8.50;;;7.83;;
22877;SDS011;11606;45.404;12.148;2022-08-01T02:40:59;7.40;;;6.77;;
22877;SDS011;11606;45.404;12.148;2022-08-01T02:43:30;7.57;;;6.87;;
22877;SDS011;11606;45.404;12.148;2022-08-01T02:46:02;9.73;;;8.83;;
22877;SDS011;11606;45.404;12.148;2022-08-01T02:48:30;11.17;;;10.27;;
22877;SDS011;11606;45.404;12.148;2022-08-01T02:50:59;7.80;;;7.13;;
22877;SDS011;11606;45.404;12.148;2022-08-01T02:53:27;7.40;;;6.80;;
22877;SDS011;11606;45.404;12.148;2022-08-01T02:55:56;7.40;;;6.80;;
22877;SDS011;11606;45.404;12.148;2022-08-01T02:58:23;7.97;;;7.20;;
22877;SDS011;11606;45.404;12.148;2022-08-01T03:00:50;7.30;;;6.80;;
22877;SDS011;11606;45.404;12.148;2022-08-01T03:03:17;8.00;;;7.40;;
22877;SDS011;11606;45.404;12.148;2022-08-01T03:05:43;8.30;;;7.70;;
22877;SDS011;11606;45.404;12.148;2022-08-01T03:08:11;8.57;;;7.97;;
22877;SDS011;11606;45.404;12.148;2022-08-01T03:10:39;7.40;;;6.80;;
22877;SDS011;11606;45.404;12.148;2022-08-01T03:13:08;8.17;;;7.47;;
22877;SDS011;11606;45.404;12.148;2022-08-01T03:15:36;7.63;;;7.03;;
22877;SDS011;11606;45.404;12.148;2022-08-01T03:18:05;7.53;;;6.93;;
22877;SDS011;11606;45.404;12.148;2022-08-01T03:20:33;7.63;;;7.03;;
22877;SDS011;11606;45.404;12.148;2022-08-01T03:23:00;8.30;;;7.60;;
22877;SDS011;11606;45.404;12.148;2022-08-01T03:25:32;9.47;;;8.67;;
22877;SDS011;11606;45.404;12.148;2022-08-01T03:28:02;9.60;;;8.20;;
22877;SDS011;11606;45.404;12.148;2022-08-01T03:30:30;8.37;;;7.77;;
22877;SDS011;11606;45.404;12.148;2022-08-01T03:32:57;9.20;;;8.40;;
22877;SDS011;11606;45.404;12.148;2022-08-01T03:35:26;8.40;;;7.70;;
22877;SDS011;11606;45.404;12.148;2022-08-01T03:37:58;9.70;;;8.77;;
22877;SDS011;11606;45.404;12.148;2022-08-01T03:43:11;9.77;;;8.90;;
22877;SDS011;11606;45.404;12.148;2022-08-01T03:45:46;8.83;;;8.13;;
22877;SDS011;11606;45.404;12.148;2022-08-01T03:48:19;9.07;;;8.23;;
22877;SDS011;11606;45.404;12.148;2022-08-01T03:50:52;8.63;;;7.93;;
22877;SDS011;11606;45.404;12.148;2022-08-01T03:53:22;8.73;;;8.07;;
22877;SDS011;11606;45.404;12.148;2022-08-01T03:55:53;8.13;;;7.30;;
22877;SDS011;11606;45.404;12.148;2022-08-01T03:58:20;10.33;;;9.23;;
22877;SDS011;11606;45.404;12.148;2022-08-01T04:00:46;8.87;;;7.90;;
22877;SDS011;11606;45.404;12.148;2022-08-01T04:03:13;7.93;;;7.33;;
22877;SDS011;11606;45.404;12.148;2022-08-01T04:05:42;9.40;;;8.47;;
22877;SDS011;11606;45.404;12.148;2022-08-01T04:08:08;9.00;;;8.20;;
22877;SDS011;11606;45.404;12.148;2022-08-01T04:10:34;9.27;;;8.57;;
22877;SDS011;11606;45.404;12.148;2022-08-01T04:13:01;8.77;;;8.07;;
22877;SDS011;11606;45.404;12.148;2022-08-01T04:15:27;9.10;;;8.30;;
22877;SDS011;11606;45.404;12.148;2022-08-01T04:17:53;10.70;;;9.73;;
22877;SDS011;11606;45.404;12.148;2022-08-01T04:20:19;9.67;;;8.87;;
22877;SDS011;11606;45.404;12.148;2022-08-01T04:22:45;9.60;;;8.90;;
22877;SDS011;11606;45.404;12.148;2022-08-01T04:25:19;9.80;;;9.00;;
22877;SDS011;11606;45.404;12.148;2022-08-01T04:27:50;9.23;;;8.53;;
22877;SDS011;11606;45.404;12.148;2022-08-01T04:30:27;10.40;;;9.50;;
22877;SDS011;11606;45.404;12.148;2022-08-01T04:32:56;9.33;;;8.57;;
22877;SDS011;11606;45.404;12.148;2022-08-01T04:35:25;9.10;;;8.43;;
22877;SDS011;11606;45.404;12.148;2022-08-01T04:37:52;8.73;;;8.03;;
22877;SDS011;11606;45.404;12.148;2022-08-01T04:40:19;9.93;;;9.00;;
22877;SDS011;11606;45.404;12.148;2022-08-01T04:42:47;10.93;;;9.83;;
22877;SDS011;11606;45.404;12.148;2022-08-01T04:45:14;15.67;;;14.23;;
22877;SDS011;11606;45.404;12.148;2022-08-01T04:47:40;14.00;;;12.90;;
22877;SDS011;11606;45.404;12.148;2022-08-01T04:50:07;13.70;;;12.53;;
22877;SDS011;11606;45.404;12.148;2022-08-01T04:52:35;18.53;;;16.83;;
22877;SDS011;11606;45.404;12.148;2022-08-01T04:55:02;17.03;;;15.40;;
22877;SDS011;11606;45.404;12.148;2022-08-01T04:57:31;18.03;;;16.37;;
22877;SDS011;11606;45.404;12.148;2022-08-01T05:00:02;16.97;;;15.57;;
22877;SDS011;11606;45.404;12.148;2022-08-01T05:02:28;16.20;;;14.83;;
22877;SDS011;11606;45.404;12.148;2022-08-01T05:04:54;19.77;;;18.17;;
22877;SDS011;11606;45.404;12.148;2022-08-01T05:07:20;18.37;;;16.77;;
22877;SDS011;11606;45.404;12.148;2022-08-01T05:09:47;18.23;;;16.80;;
22877;SDS011;11606;45.404;12.148;2022-08-01T05:12:12;19.07;;;17.37;;
22877;SDS011;11606;45.404;12.148;2022-08-01T05:14:39;19.93;;;18.33;;
22877;SDS011;11606;45.404;12.148;2022-08-01T05:17:06;19.23;;;17.53;;
22877;SDS011;11606;45.404;12.148;2022-08-01T05:19:33;22.13;;;20.13;;
22877;SDS011;11606;45.404;12.148;2022-08-01T05:22:00;19.60;;;18.00;;
22877;SDS011;11606;45.404;12.148;2022-08-01T05:24:29;19.90;;;17.87;;
22877;SDS011;11606;45.404;12.148;2022-08-01T05:26:56;19.67;;;17.83;;
22877;SDS011;11606;45.404;12.148;2022-08-01T05:29:22;20.05;;;18.35;;
22877;SDS011;11606;45.404;12.148;2022-08-01T05:31:48;20.05;;;18.00;;
22877;SDS011;11606;45.404;12.148;2022-08-01T05:34:14;18.95;;;17.23;;
22877;SDS011;11606;45.404;12.148;2022-08-01T05:36:40;19.05;;;17.45;;
22877;SDS011;11606;45.404;12.148;2022-08-01T05:39:06;18.55;;;16.88;;
22877;SDS011;11606;45.404;12.148;2022-08-01T05:41:32;18.90;;;17.10;;
22877;SDS011;11606;45.404;12.148;2022-08-01T05:43:58;20.33;;;18.50;;
22877;SDS011;11606;45.404;12.148;2022-08-01T05:46:24;19.50;;;17.90;;
22877;SDS011;11606;45.404;12.148;2022-08-01T05:48:50;18.48;;;16.90;;
22877;SDS011;11606;45.404;12.148;2022-08-01T05:51:16;18.80;;;17.30;;
22877;SDS011;11606;45.404;12.148;2022-08-01T05:53:41;18.88;;;17.13;;
22877;SDS011;11606;45.404;12.148;2022-08-01T05:56:07;18.35;;;16.65;;
22877;SDS011;11606;45.404;12.148;2022-08-01T05:58:33;18.45;;;16.73;;
22877;SDS011;11606;45.404;12.148;2022-08-01T06:00:59;17.83;;;16.33;;
22877;SDS011;11606;45.404;12.148;2022-08-01T06:03:24;17.02;;;15.57;;
22877;SDS011;11606;45.404;12.148;2022-08-01T06:05:53;19.10;;;16.23;;
22877;SDS011;11606;45.404;12.148;2022-08-01T06:08:19;17.13;;;15.60;;
22877;SDS011;11606;45.404;12.148;2022-08-01T06:10:45;17.30;;;15.68;;
22877;SDS011;11606;45.404;12.148;2022-08-01T06:13:10;17.95;;;15.93;;
22877;SDS011;11606;45.404;12.148;2022-08-01T06:15:36;15.93;;;14.45;;
22877;SDS011;11606;45.404;12.148;2022-08-01T06:18:02;16.42;;;15.13;;
22877;SDS011;11606;45.404;12.148;2022-08-01T06:20:28;16.77;;;15.20;;
22877;SDS011;11606;45.404;12.148;2022-08-01T06:22:54;15.18;;;13.90;;
22877;SDS011;11606;45.404;12.148;2022-08-01T06:25:20;15.30;;;13.88;;
22877;SDS011;11606;45.404;12.148;2022-08-01T06:27:46;13.98;;;12.70;;
22877;SDS011;11606;45.404;12.148;2022-08-01T06:30:12;15.20;;;13.90;;
22877;SDS011;11606;45.404;12.148;2022-08-01T06:32:38;14.80;;;13.45;;
22877;SDS011;11606;45.404;12.148;2022-08-01T06:35:04;15.85;;;14.43;;
22877;SDS011;11606;45.404;12.148;2022-08-01T06:37:30;13.68;;;12.40;;
22877;SDS011;11606;45.404;12.148;2022-08-01T06:40:03;13.85;;;12.68;;
22877;SDS011;11606;45.404;12.148;2022-08-01T06:42:31;15.75;;;14.25;;
22877;SDS011;11606;45.404;12.148;2022-08-01T06:45:01;13.88;;;12.55;;
22877;SDS011;11606;45.404;12.148;2022-08-01T06:47:30;14.57;;;13.32;;
22877;SDS011;11606;45.404;12.148;2022-08-01T06:49:56;13.88;;;12.57;;
22877;SDS011;11606;45.404;12.148;2022-08-01T06:52:22;15.75;;;13.95;;
22877;SDS011;11606;45.404;12.148;2022-08-01T06:54:48;12.85;;;11.75;;
22877;SDS011;11606;45.404;12.148;2022-08-01T06:57:14;12.07;;;10.98;;
22877;SDS011;11606;45.404;12.148;2022-08-01T06:59:40;12.57;;;11.27;;
22877;SDS011;11606;45.404;12.148;2022-08-01T07:02:05;12.25;;;11.18;;
22877;SDS011;11606;45.404;12.148;2022-08-01T07:04:33;12.90;;;10.98;;
22877;SDS011;11606;45.404;12.148;2022-08-01T07:06:59;10.77;;;9.93;;
22877;SDS011;11606;45.404;12.148;2022-08-01T07:09:25;9.85;;;8.93;;
22877;SDS011;11606;45.404;12.148;2022-08-01T07:11:52;9.40;;;8.63;;
22877;SDS011;11606;45.404;12.148;2022-08-01T07:14:19;10.57;;;9.02;;
22877;SDS011;11606;45.404;12.148;2022-08-01T07:16:46;9.63;;;8.77;;
22877;SDS011;11606;45.404;12.148;2022-08-01T07:19:12;9.77;;;8.15;;
22877;SDS011;11606;45.404;12.148;2022-08-01T07:21:38;7.88;;;7.18;;
22877;SDS011;11606;45.404;12.148;2022-08-01T07:24:05;10.52;;;7.90;;
22877;SDS011;11606;45.404;12.148;2022-08-01T07:26:31;7.90;;;7.20;;
22877;SDS011;11606;45.404;12.148;2022-08-01T07:28:57;6.28;;;5.78;;
22877;SDS011;11606;45.404;12.148;2022-08-01T07:31:23;7.70;;;7.00;;
22877;SDS011;11606;45.404;12.148;2022-08-01T07:33:49;6.15;;;5.55;;
22877;SDS011;11606;45.404;12.148;2022-08-01T07:36:16;3.60;;;3.30;;
22877;SDS011;11606;45.404;12.148;2022-08-01T07:38:42;2.78;;;2.30;;
22877;SDS011;11606;45.404;12.148;2022-08-01T07:41:08;2.58;;;2.38;;
22877;SDS011;11606;45.404;12.148;2022-08-01T07:43:34;4.18;;;3.58;;
22877;SDS011;11606;45.404;12.148;2022-08-01T07:46:01;6.35;;;4.18;;
22877;SDS011;11606;45.404;12.148;2022-08-01T07:48:31;4.47;;;4.07;;
22877;SDS011;11606;45.404;12.148;2022-08-01T07:50:57;2.97;;;2.13;;
22877;SDS011;11606;45.404;12.148;2022-08-01T07:53:23;3.30;;;2.92;;
22877;SDS011;11606;45.404;12.148;2022-08-01T07:55:48;3.78;;;3.15;;
22877;SDS011;11606;45.404;12.148;2022-08-01T07:58:14;3.42;;;3.10;;
22877;SDS011;11606;45.404;12.148;2022-08-01T08:00:41;2.85;;;2.65;;
22877;SDS011;11606;45.404;12.148;2022-08-01T08:03:07;3.67;;;2.53;;
22877;SDS011;11606;45.404;12.148;2022-08-01T08:05:34;6.40;;;3.63;;
22877;SDS011;11606;45.404;12.148;2022-08-01T08:08:06;3.75;;;3.45;;
22877;SDS011;11606;45.404;12.148;2022-08-01T08:10:33;3.33;;;3.10;;
22877;SDS011;11606;45.404;12.148;2022-08-01T08:12:59;6.40;;;3.67;;
22877;SDS011;11606;45.404;12.148;2022-08-01T08:15:26;4.00;;;3.60;;
22877;SDS011;11606;45.404;12.148;2022-08-01T08:17:53;3.60;;;2.30;;
22877;SDS011;11606;45.404;12.148;2022-08-01T08:20:18;2.60;;;2.40;;
22877;SDS011;11606;45.404;12.148;2022-08-01T08:22:49;2.65;;;2.33;;
22877;SDS011;11606;45.404;12.148;2022-08-01T08:25:15;2.90;;;2.33;;
22877;SDS011;11606;45.404;12.148;2022-08-01T08:27:41;2.42;;;2.03;;
22877;SDS011;11606;45.404;12.148;2022-08-01T08:30:07;1.77;;;1.67;;
22877;SDS011;11606;45.404;12.148;2022-08-01T08:32:34;3.08;;;1.67;;
22877;SDS011;11606;45.404;12.148;2022-08-01T08:35:00;2.80;;;1.70;;
22877;SDS011;11606;45.404;12.148;2022-08-01T08:37:26;1.73;;;1.30;;
22877;SDS011;11606;45.404;12.148;2022-08-01T08:39:52;1.27;;;1.10;;
22877;SDS011;11606;45.404;12.148;2022-08-01T08:42:18;1.77;;;1.35;;
22877;SDS011;11606;45.404;12.148;2022-08-01T08:44:43;3.35;;;1.33;;
22877;SDS011;11606;45.404;12.148;2022-08-01T08:47:11;2.00;;;1.40;;
22877;SDS011;11606;45.404;12.148;2022-08-01T08:49:38;2.15;;;1.17;;
22877;SDS011;11606;45.404;12.148;2022-08-01T08:52:06;3.80;;;1.42;;
22877;SDS011;11606;45.404;12.148;2022-08-01T08:54:34;2.45;;;1.30;;
22877;SDS011;11606;45.404;12.148;2022-08-01T08:57:02;1.98;;;1.25;;
22877;SDS011;11606;45.404;12.148;2022-08-01T08:59:29;3.67;;;1.67;;
22877;SDS011;11606;45.404;12.148;2022-08-01T09:01:55;1.35;;;1.17;;
22877;SDS011;11606;45.404;12.148;2022-08-01T09:04:22;2.33;;;1.15;;
22877;SDS011;11606;45.404;12.148;2022-08-01T09:06:48;1.20;;;1.10;;
22877;SDS011;11606;45.404;12.148;2022-08-01T09:09:14;1.92;;;0.90;;
22877;SDS011;11606;45.404;12.148;2022-08-01T09:11:40;1.75;;;1.13;;
22877;SDS011;11606;45.404;12.148;2022-08-01T09:14:13;8.32;;;1.95;;
22877;SDS011;11606;45.404;12.148;2022-08-01T09:16:43;1.00;;;0.90;;
22877;SDS011;11606;45.404;12.148;2022-08-01T09:19:33;1.73;;;1.30;;
22877;SDS011;11606;45.404;12.148;2022-08-01T09:22:03;1.80;;;0.90;;
22877;SDS011;11606;45.404;12.148;2022-08-01T09:24:30;1.10;;;0.90;;
22877;SDS011;11606;45.404;12.148;2022-08-01T09:26:58;1.10;;;1.00;;
22877;SDS011;11606;45.404;12.148;2022-08-01T09:29:25;2.53;;;0.93;;
22877;SDS011;11606;45.404;12.148;2022-08-01T09:31:52;1.30;;;0.77;;
22877;SDS011;11606;45.404;12.148;2022-08-01T09:36:56;1.88;;;0.88;;
22877;SDS011;11606;45.404;12.148;2022-08-01T09:39:24;2.20;;;1.00;;
22877;SDS011;11606;45.404;12.148;2022-08-01T09:41:55;1.15;;;0.80;;
22877;SDS011;11606;45.404;12.148;2022-08-01T09:47:07;1.95;;;0.93;;
22877;SDS011;11606;45.404;12.148;2022-08-01T09:49:34;1.23;;;1.10;;
22877;SDS011;11606;45.404;12.148;2022-08-01T09:54:43;1.60;;;0.82;;
22877;SDS011;11606;45.404;12.148;2022-08-01T09:57:17;1.25;;;0.90;;
22877;SDS011;11606;45.404;12.148;2022-08-01T09:59:48;1.20;;;1.10;;
22877;SDS011;11606;45.404;12.148;2022-08-01T10:02:35;1.88;;;0.85;;
22877;SDS011;11606;45.404;12.148;2022-08-01T10:05:06;0.93;;;0.88;;
22877;SDS011;11606;45.404;12.148;2022-08-01T10:07:35;1.45;;;0.90;;
22877;SDS011;11606;45.404;12.148;2022-08-01T10:10:19;0.80;;;0.80;;
22877;SDS011;11606;45.404;12.148;2022-08-01T10:12:45;2.75;;;0.80;;
22877;SDS011;11606;45.404;12.148;2022-08-01T10:15:14;1.27;;;0.70;;
22877;SDS011;11606;45.404;12.148;2022-08-01T10:17:43;0.80;;;0.73;;
22877;SDS011;11606;45.404;12.148;2022-08-01T10:20:39;1.15;;;0.80;;
22877;SDS011;11606;45.404;12.148;2022-08-01T10:23:05;1.05;;;0.80;;
22877;SDS011;11606;45.404;12.148;2022-08-01T10:25:36;0.80;;;0.80;;
22877;SDS011;11606;45.404;12.148;2022-08-01T10:28:06;1.15;;;0.90;;
22877;SDS011;11606;45.404;12.148;2022-08-01T10:30:41;3.45;;;1.00;;
22877;SDS011;11606;45.404;12.148;2022-08-01T10:33:08;0.70;;;0.70;;
22877;SDS011;11606;45.404;12.148;2022-08-01T10:35:36;0.82;;;0.70;;
22877;SDS011;11606;45.404;12.148;2022-08-01T10:38:03;3.88;;;1.17;;
22877;SDS011;11606;45.404;12.148;2022-08-01T10:40:31;0.70;;;0.70;;
22877;SDS011;11606;45.404;12.148;2022-08-01T10:42:58;3.55;;;1.00;;
22877;SDS011;11606;45.404;12.148;2022-08-01T10:45:26;0.95;;;0.82;;
22877;SDS011;11606;45.404;12.148;2022-08-01T10:50:28;0.93;;;0.70;;
22877;SDS011;11606;45.404;12.148;2022-08-01T10:53:03;1.88;;;1.05;;
22877;SDS011;11606;45.404;12.148;2022-08-01T10:55:45;0.98;;;0.70;;
22877;SDS011;11606;45.404;12.148;2022-08-01T10:58:11;3.53;;;1.00;;
22877;SDS011;11606;45.404;12.148;2022-08-01T11:00:38;0.65;;;0.65;;
22877;SDS011;11606;45.404;12.148;2022-08-01T11:03:04;1.17;;;0.90;;
22877;SDS011;11606;45.404;12.148;2022-08-01T11:05:31;1.85;;;0.90;;
22877;SDS011;11606;45.404;12.148;2022-08-01T11:08:01;1.58;;;0.88;;
22877;SDS011;11606;45.404;12.148;2022-08-01T11:10:46;1.27;;;0.80;;
22877;SDS011;11606;45.404;12.148;2022-08-01T11:13:12;0.80;;;0.80;;
22877;SDS011;11606;45.404;12.148;2022-08-01T11:15:39;2.22;;;0.90;;
22877;SDS011;11606;45.404;12.148;2022-08-01T11:20:57;0.70;;;0.70;;
22877;SDS011;11606;45.404;12.148;2022-08-01T11:23:28;0.93;;;0.80;;
22877;SDS011;11606;45.404;12.148;2022-08-01T11:28:26;0.77;;;0.77;;
